sensor_id;sensor_type;location;lat;lon;timestamp;pressure;altitude;pressure_sealevel;temperature;humidity
47761;BME280;33524;55.434;38.520;2022-12-07T00:01:46;101732.84;;;-8.28;91.52
47761;BME280;33524;55.434;38.520;2022-12-07T00:04:17;101726.25;;;-8.20;91.46
47761;BME280;33524;55.434;38.520;2022-12-07T00:06:47;101725.41;;;-8.19;90.97
47761;BME280;33524;55.434;38.520;2022-12-07T00:09:18;101730.41;;;-8.24;90.53
47761;BME280;33524;55.434;38.520;2022-12-07T00:11:51;101730.19;;;-8.32;90.24
47761;BME280;33524;55.434;38.520;2022-12-07T00:14:20;101726.09;;;-8.26;90.53
47761;BME280;33524;55.434;38.520;2022-12-07T00:16:52;101732.66;;;-8.35;90.35
47761;BME280;33524;55.434;38.520;2022-12-07T00:19:20;101718.72;;;-8.49;90.21
47761;BME280;33524;55.434;38.520;2022-12-07T00:21:48;101727.59;;;-8.33;90.07
47761;BME280;33524;55.434;38.520;2022-12-07T00:24:19;101734.31;;;-8.37;90.61
47761;BME280;33524;55.434;38.520;2022-12-07T00:26:51;101727.63;;;-8.32;90.59
47761;BME280;33524;55.434;38.520;2022-12-07T00:29:20;101733.56;;;-8.33;90.42
47761;BME280;33524;55.434;38.520;2022-12-07T00:31:52;101725.81;;;-8.36;90.21
47761;BME280;33524;55.434;38.520;2022-12-07T00:34:21;101705.13;;;-8.48;90.10
47761;BME280;33524;55.434;38.520;2022-12-07T00:36:49;101724.13;;;-8.37;90.43
47761;BME280;33524;55.434;38.520;2022-12-07T00:39:18;101719.81;;;-8.38;90.15
47761;BME280;33524;55.434;38.520;2022-12-07T00:41:46;101717.53;;;-8.28;90.86
47761;BME280;33524;55.434;38.520;2022-12-07T00:44:14;101724.06;;;-8.38;90.15
47761;BME280;33524;55.434;38.520;2022-12-07T00:46:42;101723.88;;;-8.46;90.12
47761;BME280;33524;55.434;38.520;2022-12-07T00:49:10;101730.88;;;-8.39;91.05
47761;BME280;33524;55.434;38.520;2022-12-07T00:51:37;101705.22;;;-8.43;90.82
47761;BME280;33524;55.434;38.520;2022-12-07T00:54:09;101722.38;;;-8.38;90.73
47761;BME280;33524;55.434;38.520;2022-12-07T00:56:37;101720.59;;;-8.42;90.58
47761;BME280;33524;55.434;38.520;2022-12-07T00:59:05;101724.28;;;-8.30;90.85
47761;BME280;33524;55.434;38.520;2022-12-07T01:01:35;101723.38;;;-8.31;90.58
47761;BME280;33524;55.434;38.520;2022-12-07T01:04:04;101722.19;;;-8.47;90.42
47761;BME280;33524;55.434;38.520;2022-12-07T01:06:33;101726.47;;;-8.44;90.72
47761;BME280;33524;55.434;38.520;2022-12-07T01:09:01;101722.47;;;-8.35;90.59
47761;BME280;33524;55.434;38.520;2022-12-07T01:11:29;101728.31;;;-8.39;90.48
47761;BME280;33524;55.434;38.520;2022-12-07T01:13:59;101720.59;;;-8.42;90.37
47761;BME280;33524;55.434;38.520;2022-12-07T01:16:29;101709.94;;;-8.59;90.57
47761;BME280;33524;55.434;38.520;2022-12-07T01:18:59;101728.03;;;-8.49;90.57
47761;BME280;33524;55.434;38.520;2022-12-07T01:21:30;101721.16;;;-8.52;90.85
47761;BME280;33524;55.434;38.520;2022-12-07T01:24:05;101725.37;;;-8.54;90.37
47761;BME280;33524;55.434;38.520;2022-12-07T01:26:33;101733.69;;;-8.61;90.80
47761;BME280;33524;55.434;38.520;2022-12-07T01:29:01;101732.72;;;-8.65;91.02
47761;BME280;33524;55.434;38.520;2022-12-07T01:31:29;101728.87;;;-8.50;91.88
47761;BME280;33524;55.434;38.520;2022-12-07T01:33:59;101729.53;;;-8.58;91.36
47761;BME280;33524;55.434;38.520;2022-12-07T01:36:30;101724.09;;;-8.70;90.86
47761;BME280;33524;55.434;38.520;2022-12-07T01:39:00;101715.16;;;-8.54;92.07
47761;BME280;33524;55.434;38.520;2022-12-07T01:41:31;101729.53;;;-8.88;90.40
47761;BME280;33524;55.434;38.520;2022-12-07T01:44:24;101717.87;;;-8.48;92.00
47761;BME280;33524;55.434;38.520;2022-12-07T01:46:54;101714.94;;;-8.63;91.02
47761;BME280;33524;55.434;38.520;2022-12-07T01:49:47;101713.69;;;-8.46;91.86
47761;BME280;33524;55.434;38.520;2022-12-07T01:52:17;101711.00;;;-8.50;91.48
47761;BME280;33524;55.434;38.520;2022-12-07T01:54:49;101701.44;;;-8.59;90.77
47761;BME280;33524;55.434;38.520;2022-12-07T01:57:19;101710.06;;;-8.54;91.40
47761;BME280;33524;55.434;38.520;2022-12-07T01:59:51;101702.47;;;-8.53;91.53
47761;BME280;33524;55.434;38.520;2022-12-07T02:02:24;101692.72;;;-8.67;90.90
47761;BME280;33524;55.434;38.520;2022-12-07T02:04:56;101700.75;;;-8.54;91.69
47761;BME280;33524;55.434;38.520;2022-12-07T02:07:26;101703.56;;;-8.43;91.37
47761;BME280;33524;55.434;38.520;2022-12-07T02:09:55;101709.00;;;-8.62;91.12
47761;BME280;33524;55.434;38.520;2022-12-07T02:12:24;101708.69;;;-8.43;91.69
47761;BME280;33524;55.434;38.520;2022-12-07T02:15:13;101709.31;;;-8.50;91.02
47761;BME280;33524;55.434;38.520;2022-12-07T02:17:57;101704.94;;;-8.56;91.61
47761;BME280;33524;55.434;38.520;2022-12-07T02:26:48;101684.31;;;-8.63;90.83
47761;BME280;33524;55.434;38.520;2022-12-07T02:32:11;101696.28;;;-8.61;90.84
47761;BME280;33524;55.434;38.520;2022-12-07T02:34:47;101696.22;;;-8.62;90.99
47761;BME280;33524;55.434;38.520;2022-12-07T02:43:36;101693.63;;;-8.65;90.92
47761;BME280;33524;55.434;38.520;2022-12-07T02:46:09;101692.03;;;-8.62;90.84
47761;BME280;33524;55.434;38.520;2022-12-07T02:48:39;101688.69;;;-8.59;90.88
47761;BME280;33524;55.434;38.520;2022-12-07T02:51:09;101691.81;;;-8.69;90.94
47761;BME280;33524;55.434;38.520;2022-12-07T02:53:40;101694.94;;;-8.80;91.38
47761;BME280;33524;55.434;38.520;2022-12-07T03:03:51;101684.59;;;-8.84;91.56
47761;BME280;33524;55.434;38.520;2022-12-07T03:06:31;101680.38;;;-8.84;91.62
47761;BME280;33524;55.434;38.520;2022-12-07T03:09:23;101695.91;;;-8.75;92.22
47761;BME280;33524;55.434;38.520;2022-12-07T03:12:10;101683.34;;;-8.99;91.06
47761;BME280;33524;55.434;38.520;2022-12-07T03:14:47;101683.25;;;-8.71;91.96
47761;BME280;33524;55.434;38.520;2022-12-07T03:17:22;101682.25;;;-8.77;91.74
47761;BME280;33524;55.434;38.520;2022-12-07T03:19:55;101685.97;;;-8.65;91.77
47761;BME280;33524;55.434;38.520;2022-12-07T03:22:28;101678.56;;;-8.88;91.13
47761;BME280;33524;55.434;38.520;2022-12-07T03:25:00;101679.84;;;-8.70;91.50
47761;BME280;33524;55.434;38.520;2022-12-07T03:27:39;101676.44;;;-9.03;90.50
47761;BME280;33524;55.434;38.520;2022-12-07T03:30:23;101680.22;;;-9.19;89.42
47761;BME280;33524;55.434;38.520;2022-12-07T03:40:39;101679.28;;;-8.92;90.96
47761;BME280;33524;55.434;38.520;2022-12-07T03:43:08;101675.16;;;-8.87;90.94
47761;BME280;33524;55.434;38.520;2022-12-07T03:45:40;101679.50;;;-8.84;90.87
47761;BME280;33524;55.434;38.520;2022-12-07T03:50:54;101682.06;;;-8.83;91.18
47761;BME280;33524;55.434;38.520;2022-12-07T03:53:36;101683.81;;;-9.12;89.63
47761;BME280;33524;55.434;38.520;2022-12-07T03:56:08;101670.22;;;-8.81;91.31
47761;BME280;33524;55.434;38.520;2022-12-07T03:58:38;101666.78;;;-8.83;91.35
47761;BME280;33524;55.434;38.520;2022-12-07T04:01:07;101679.69;;;-9.08;89.86
47761;BME280;33524;55.434;38.520;2022-12-07T04:03:35;101674.31;;;-8.87;91.33
47761;BME280;33524;55.434;38.520;2022-12-07T04:06:03;101678.56;;;-8.88;91.26
47761;BME280;33524;55.434;38.520;2022-12-07T04:08:34;101676.44;;;-9.03;91.02
47761;BME280;33524;55.434;38.520;2022-12-07T04:11:02;101675.16;;;-8.87;91.12
47761;BME280;33524;55.434;38.520;2022-12-07T04:13:30;101674.47;;;-8.81;90.72
47761;BME280;33524;55.434;38.520;2022-12-07T04:16:18;101675.31;;;-8.82;90.70
47761;BME280;33524;55.434;38.520;2022-12-07T04:18:46;101681.97;;;-8.87;90.43
47761;BME280;33524;55.434;38.520;2022-12-07T04:21:17;101672.50;;;-8.91;90.47
47761;BME280;33524;55.434;38.520;2022-12-07T04:23:45;101682.91;;;-9.14;88.78
47761;BME280;33524;55.434;38.520;2022-12-07T04:26:13;101672.31;;;-8.98;90.85
47761;BME280;33524;55.434;38.520;2022-12-07T04:28:41;101672.19;;;-9.02;89.98
47761;BME280;33524;55.434;38.520;2022-12-07T04:31:09;101678.44;;;-8.91;90.62
47761;BME280;33524;55.434;38.520;2022-12-07T04:33:37;101670.13;;;-8.85;91.00
47761;BME280;33524;55.434;38.520;2022-12-07T04:36:05;101672.44;;;-8.93;90.53
47761;BME280;33524;55.434;38.520;2022-12-07T04:38:35;101669.31;;;-8.84;90.74
47761;BME280;33524;55.434;38.520;2022-12-07T04:41:09;101669.22;;;-8.87;90.39
47761;BME280;33524;55.434;38.520;2022-12-07T04:43:38;101671.63;;;-8.92;90.41
47761;BME280;33524;55.434;38.520;2022-12-07T04:46:06;101664.84;;;-8.91;90.38
47761;BME280;33524;55.434;38.520;2022-12-07T04:48:34;101671.53;;;-8.95;90.63
47761;BME280;33524;55.434;38.520;2022-12-07T04:51:03;101671.47;;;-8.98;90.53
47761;BME280;33524;55.434;38.520;2022-12-07T04:53:31;101661.16;;;-9.01;90.64
47761;BME280;33524;55.434;38.520;2022-12-07T04:56:02;101675.00;;;-8.93;91.07
47761;BME280;33524;55.434;38.520;2022-12-07T04:58:30;101686.84;;;-8.95;90.62
47761;BME280;33524;55.434;38.520;2022-12-07T05:00:58;101682.69;;;-8.91;91.12
47761;BME280;33524;55.434;38.520;2022-12-07T05:03:26;101669.78;;;-8.98;91.41
47761;BME280;33524;55.434;38.520;2022-12-07T05:05:58;101680.81;;;-8.97;91.04
47761;BME280;33524;55.434;38.520;2022-12-07T05:08:25;101673.44;;;-8.88;90.92
47761;BME280;33524;55.434;38.520;2022-12-07T05:10:53;101675.94;;;-8.89;90.68
47761;BME280;33524;55.434;38.520;2022-12-07T05:13:22;101684.78;;;-9.08;89.99
47761;BME280;33524;55.434;38.520;2022-12-07T05:15:49;101679.16;;;-8.97;90.86
47761;BME280;33524;55.434;38.520;2022-12-07T05:18:17;101678.38;;;-8.94;90.81
47761;BME280;33524;55.434;38.520;2022-12-07T05:20:46;101677.59;;;-8.91;90.90
47761;BME280;33524;55.434;38.520;2022-12-07T05:23:14;101681.00;;;-8.91;90.78
47761;BME280;33524;55.434;38.520;2022-12-07T05:25:41;101678.09;;;-9.03;90.48
47761;BME280;33524;55.434;38.520;2022-12-07T05:28:10;101674.66;;;-9.05;91.00
47761;BME280;33524;55.434;38.520;2022-12-07T05:30:39;101679.97;;;-8.98;90.98
47761;BME280;33524;55.434;38.520;2022-12-07T05:33:06;101674.81;;;-8.99;90.71
47761;BME280;33524;55.434;38.520;2022-12-07T05:35:35;101681.63;;;-9.00;90.83
47761;BME280;33524;55.434;38.520;2022-12-07T05:38:05;101679.41;;;-9.18;90.80
47761;BME280;33524;55.434;38.520;2022-12-07T05:40:33;101684.59;;;-9.15;90.80
47761;BME280;33524;55.434;38.520;2022-12-07T05:43:01;101681.09;;;-9.18;90.08
47761;BME280;33524;55.434;38.520;2022-12-07T05:45:31;101687.69;;;-9.25;90.03
47761;BME280;33524;55.434;38.520;2022-12-07T05:47:59;101682.00;;;-9.16;91.28
47761;BME280;33524;55.434;38.520;2022-12-07T05:50:27;101676.28;;;-9.09;91.12
47761;BME280;33524;55.434;38.520;2022-12-07T05:53:00;101689.78;;;-9.11;90.52
47761;BME280;33524;55.434;38.520;2022-12-07T05:55:31;101673.00;;;-9.05;91.00
47761;BME280;33524;55.434;38.520;2022-12-07T05:57:59;101670.28;;;-9.09;90.99
47761;BME280;33524;55.434;38.520;2022-12-07T06:00:46;101661.00;;;-9.07;90.99
47761;BME280;33524;55.434;38.520;2022-12-07T06:03:18;101671.03;;;-9.14;90.72
47761;BME280;33524;55.434;38.520;2022-12-07T06:05:46;101673.63;;;-9.12;90.54
47761;BME280;33524;55.434;38.520;2022-12-07T06:08:14;101678.72;;;-9.12;90.74
47761;BME280;33524;55.434;38.520;2022-12-07T06:10:43;101670.50;;;-9.02;90.80
47761;BME280;33524;55.434;38.520;2022-12-07T06:13:11;101676.41;;;-9.04;90.45
47761;BME280;33524;55.434;38.520;2022-12-07T06:15:38;101678.22;;;-9.00;90.18
47761;BME280;33524;55.434;38.520;2022-12-07T06:18:07;101674.81;;;-8.99;89.82
47761;BME280;33524;55.434;38.520;2022-12-07T06:20:35;101681.37;;;-9.09;89.62
47761;BME280;33524;55.434;38.520;2022-12-07T06:23:05;101684.84;;;-9.05;89.33
47761;BME280;33524;55.434;38.520;2022-12-07T06:25:34;101679.69;;;-9.08;89.40
47761;BME280;33524;55.434;38.520;2022-12-07T06:28:01;101685.50;;;-9.13;89.01
47761;BME280;33524;55.434;38.520;2022-12-07T06:30:29;101688.13;;;-9.09;89.16
47761;BME280;33524;55.434;38.520;2022-12-07T06:32:57;101693.41;;;-9.03;89.22
47761;BME280;33524;55.434;38.520;2022-12-07T06:35:25;101690.59;;;-9.13;89.35
47761;BME280;33524;55.434;38.520;2022-12-07T06:37:53;101690.03;;;-9.02;89.50
47761;BME280;33524;55.434;38.520;2022-12-07T06:40:21;101679.06;;;-9.00;89.51
47761;BME280;33524;55.434;38.520;2022-12-07T06:42:49;101684.47;;;-9.19;88.33
47761;BME280;33524;55.434;38.520;2022-12-07T06:45:17;101675.72;;;-8.99;89.12
47761;BME280;33524;55.434;38.520;2022-12-07T06:47:45;101684.16;;;-9.00;88.83
47761;BME280;33524;55.434;38.520;2022-12-07T06:50:13;101682.53;;;-8.98;88.45
47761;BME280;33524;55.434;38.520;2022-12-07T06:52:41;101683.47;;;-8.94;88.61
47761;BME280;33524;55.434;38.520;2022-12-07T06:55:09;101682.91;;;-8.84;88.94
47761;BME280;33524;55.434;38.520;2022-12-07T06:57:38;101682.00;;;-8.86;89.01
47761;BME280;33524;55.434;38.520;2022-12-07T07:00:07;101678.56;;;-8.88;88.72
47761;BME280;33524;55.434;38.520;2022-12-07T07:02:35;101678.78;;;-8.79;88.83
47761;BME280;33524;55.434;38.520;2022-12-07T07:05:03;101684.78;;;-9.08;87.45
47761;BME280;33524;55.434;38.520;2022-12-07T07:07:31;101681.06;;;-8.89;89.26
47761;BME280;33524;55.434;38.520;2022-12-07T07:10:18;101689.31;;;-8.66;89.19
47761;BME280;33524;55.434;38.520;2022-12-07T07:12:46;101686.78;;;-8.66;88.82
47761;BME280;33524;55.434;38.520;2022-12-07T07:15:21;101687.63;;;-8.67;88.42
47761;BME280;33524;55.434;38.520;2022-12-07T07:17:49;101684.37;;;-8.60;88.70
47761;BME280;33524;55.434;38.520;2022-12-07T07:20:17;101683.19;;;-8.73;87.57
47761;BME280;33524;55.434;38.520;2022-12-07T07:22:45;101678.25;;;-8.67;88.29
47761;BME280;33524;55.434;38.520;2022-12-07T07:25:13;101681.34;;;-8.47;87.67
47761;BME280;33524;55.434;38.520;2022-12-07T07:27:44;101690.75;;;-8.44;87.40
47761;BME280;33524;55.434;38.520;2022-12-07T07:30:12;101685.56;;;-8.47;87.89
47761;BME280;33524;55.434;38.520;2022-12-07T07:32:40;101679.84;;;-8.39;86.72
47761;BME280;33524;55.434;38.520;2022-12-07T07:35:27;101680.63;;;-8.41;86.78
47761;BME280;33524;55.434;38.520;2022-12-07T07:37:55;101681.63;;;-8.35;86.47
47761;BME280;33524;55.434;38.520;2022-12-07T07:40:23;101676.69;;;-8.27;86.61
47761;BME280;33524;55.434;38.520;2022-12-07T07:42:52;101680.31;;;-8.20;86.83
47761;BME280;33524;55.434;38.520;2022-12-07T07:45:22;101681.25;;;-8.15;86.97
47761;BME280;33524;55.434;38.520;2022-12-07T07:47:50;101682.09;;;-8.16;85.97
47761;BME280;33524;55.434;38.520;2022-12-07T07:50:18;101678.81;;;-8.12;85.29
47761;BME280;33524;55.434;38.520;2022-12-07T07:52:46;101675.41;;;-8.11;85.47
47761;BME280;33524;55.434;38.520;2022-12-07T07:55:14;101678.09;;;-8.05;85.21
47761;BME280;33524;55.434;38.520;2022-12-07T07:57:43;101672.19;;;-8.04;84.41
47761;BME280;33524;55.434;38.520;2022-12-07T08:00:17;101667.91;;;-8.05;84.72
47761;BME280;33524;55.434;38.520;2022-12-07T08:02:45;101663.94;;;-7.94;86.01
47761;BME280;33524;55.434;38.520;2022-12-07T08:05:14;101669.09;;;-7.91;85.50
47761;BME280;33524;55.434;38.520;2022-12-07T08:07:42;101667.50;;;-7.85;83.52
47761;BME280;33524;55.434;38.520;2022-12-07T08:10:13;101664.03;;;-7.89;84.33
47761;BME280;33524;55.434;38.520;2022-12-07T08:12:42;101662.56;;;-7.78;84.77
47761;BME280;33524;55.434;38.520;2022-12-07T08:15:30;101661.09;;;-7.68;84.19
47761;BME280;33524;55.434;38.520;2022-12-07T08:17:59;101661.06;;;-7.69;84.31
47761;BME280;33524;55.434;38.520;2022-12-07T08:20:29;101663.69;;;-7.66;84.46
47761;BME280;33524;55.434;38.520;2022-12-07T08:22:57;101654.34;;;-7.66;84.67
47761;BME280;33524;55.434;38.520;2022-12-07T08:25:26;101656.19;;;-7.59;83.94
47761;BME280;33524;55.434;38.520;2022-12-07T08:27:54;101658.81;;;-7.56;84.36
47761;BME280;33524;55.434;38.520;2022-12-07T08:30:22;101651.28;;;-7.49;84.26
47761;BME280;33524;55.434;38.520;2022-12-07T08:32:50;101659.97;;;-7.41;83.24
47761;BME280;33524;55.434;38.520;2022-12-07T08:35:21;101656.25;;;-7.56;82.90
47761;BME280;33524;55.434;38.520;2022-12-07T08:37:50;101653.22;;;-7.39;83.10
47761;BME280;33524;55.434;38.520;2022-12-07T08:40:18;101655.00;;;-7.35;83.37
47761;BME280;33524;55.434;38.520;2022-12-07T08:42:50;101654.28;;;-7.29;83.04
47761;BME280;33524;55.434;38.520;2022-12-07T08:45:19;101650.16;;;-7.23;83.55
47761;BME280;33524;55.434;38.520;2022-12-07T08:48:06;101648.41;;;-7.24;82.84
47761;BME280;33524;55.434;38.520;2022-12-07T08:50:36;101652.06;;;-7.13;83.32
47761;BME280;33524;55.434;38.520;2022-12-07T08:53:05;101653.91;;;-7.05;82.18
47761;BME280;33524;55.434;38.520;2022-12-07T08:55:34;101648.03;;;-7.00;82.53
47761;BME280;33524;55.434;38.520;2022-12-07T08:58:03;101657.41;;;-7.00;82.51
47761;BME280;33524;55.434;38.520;2022-12-07T09:00:31;101649.09;;;-6.90;82.45
47761;BME280;33524;55.434;38.520;2022-12-07T09:02:59;101640.53;;;-6.92;81.61
47761;BME280;33524;55.434;38.520;2022-12-07T09:05:27;101632.84;;;-6.92;82.40
47761;BME280;33524;55.434;38.520;2022-12-07T09:07:57;101638.22;;;-6.80;81.50
47761;BME280;33524;55.434;38.520;2022-12-07T09:10:28;101630.75;;;-6.67;79.44
47761;BME280;33524;55.434;38.520;2022-12-07T09:12:57;101620.22;;;-6.83;81.00
47761;BME280;33524;55.434;38.520;2022-12-07T09:15:28;101628.19;;;-6.66;83.45
47761;BME280;33524;55.434;38.520;2022-12-07T09:17:56;101622.34;;;-6.60;81.35
47761;BME280;33524;55.434;38.520;2022-12-07T09:20:24;101615.59;;;-6.57;81.01
47761;BME280;33524;55.434;38.520;2022-12-07T09:22:55;101616.47;;;-6.53;81.98
47761;BME280;33524;55.434;38.520;2022-12-07T09:25:22;101607.13;;;-6.51;80.96
47761;BME280;33524;55.434;38.520;2022-12-07T09:27:56;101607.91;;;-6.55;81.97
47761;BME280;33524;55.434;38.520;2022-12-07T09:30:26;101612.31;;;-6.48;81.87
47761;BME280;33524;55.434;38.520;2022-12-07T09:32:56;101608.12;;;-6.43;80.56
47761;BME280;33524;55.434;38.520;2022-12-07T09:35:24;101603.84;;;-6.44;81.93
47761;BME280;33524;55.434;38.520;2022-12-07T09:37:53;101603.00;;;-6.44;81.78
47761;BME280;33524;55.434;38.520;2022-12-07T09:40:22;101604.81;;;-6.37;81.87
47761;BME280;33524;55.434;38.520;2022-12-07T09:42:53;101597.19;;;-6.34;81.32
47761;BME280;33524;55.434;38.520;2022-12-07T09:45:31;101594.84;;;-6.20;80.58
47761;BME280;33524;55.434;38.520;2022-12-07T09:48:00;101589.63;;;-6.28;79.79
47761;BME280;33524;55.434;38.520;2022-12-07T09:50:30;101588.19;;;-6.09;81.01
47761;BME280;33524;55.434;38.520;2022-12-07T09:53:12;101588.28;;;-6.03;80.15
47761;BME280;33524;55.434;38.520;2022-12-07T09:55:45;101583.69;;;-6.22;80.59
47761;BME280;33524;55.434;38.520;2022-12-07T09:58:24;101576.97;;;-6.17;82.00
47761;BME280;33524;55.434;38.520;2022-12-07T10:00:58;101580.69;;;-5.97;78.59
47761;BME280;33524;55.434;38.520;2022-12-07T10:03:28;101590.06;;;-5.99;80.97
47761;BME280;33524;55.434;38.520;2022-12-07T10:05:56;101582.41;;;-5.93;78.82
47761;BME280;33524;55.434;38.520;2022-12-07T10:08:25;101586.63;;;-5.99;80.69
47761;BME280;33524;55.434;38.520;2022-12-07T10:10:56;101591.72;;;-6.01;79.00
47761;BME280;33524;55.434;38.520;2022-12-07T10:13:42;101587.50;;;-5.99;79.10
47761;BME280;33524;55.434;38.520;2022-12-07T10:16:58;101587.41;;;-6.05;80.20
47761;BME280;33524;55.434;38.520;2022-12-07T10:22:09;101589.19;;;-5.98;80.78
47761;BME280;33524;55.434;38.520;2022-12-07T10:24:38;101584.91;;;-6.00;80.32
47761;BME280;33524;55.434;38.520;2022-12-07T10:27:32;101584.06;;;-5.98;80.19
47761;BME280;33524;55.434;38.520;2022-12-07T10:30:00;101572.13;;;-5.99;79.79
47761;BME280;33524;55.434;38.520;2022-12-07T10:32:36;101576.41;;;-5.96;81.40
47761;BME280;33524;55.434;38.520;2022-12-07T10:35:37;101570.44;;;-5.97;81.40
47761;BME280;33524;55.434;38.520;2022-12-07T10:38:16;101568.75;;;-5.95;81.31
47761;BME280;33524;55.434;38.520;2022-12-07T10:40:44;101554.97;;;-6.04;81.32
47761;BME280;33524;55.434;38.520;2022-12-07T10:51:42;101562.75;;;-5.97;80.86
47761;BME280;33524;55.434;38.520;2022-12-07T10:56:58;101551.66;;;-5.97;79.22
47761;BME280;33524;55.434;38.520;2022-12-07T10:59:58;101541.47;;;-5.90;80.61
47761;BME280;33524;55.434;38.520;2022-12-07T11:03:09;101550.00;;;-5.91;80.88
47761;BME280;33524;55.434;38.520;2022-12-07T11:05:45;101549.19;;;-5.85;80.48
47761;BME280;33524;55.434;38.520;2022-12-07T11:17:05;101533.75;;;-5.93;79.31
47761;BME280;33524;55.434;38.520;2022-12-07T11:22:52;101536.13;;;-6.08;78.77
47761;BME280;33524;55.434;38.520;2022-12-07T11:26:13;101528.75;;;-5.82;82.85
47761;BME280;33524;55.434;38.520;2022-12-07T11:28:47;101509.09;;;-5.84;82.09
47761;BME280;33524;55.434;38.520;2022-12-07T11:34:15;101512.47;;;-5.85;82.88
47761;BME280;33524;55.434;38.520;2022-12-07T11:36:52;101507.34;;;-5.89;82.61
47761;BME280;33524;55.434;38.520;2022-12-07T11:42:19;101510.59;;;-6.02;82.58
47761;BME280;33524;55.434;38.520;2022-12-07T11:44:56;101504.91;;;-5.75;83.22
47761;BME280;33524;55.434;38.520;2022-12-07T11:55:57;101499.56;;;-5.96;85.06
47761;BME280;33524;55.434;38.520;2022-12-07T12:01:40;101497.97;;;-5.86;84.42
47761;BME280;33524;55.434;38.520;2022-12-07T12:06:41;101484.37;;;-5.79;85.29
47761;BME280;33524;55.434;38.520;2022-12-07T12:21:18;101483.38;;;-5.92;85.43
47761;BME280;33524;55.434;38.520;2022-12-07T12:23:51;101471.37;;;-5.99;85.99
47761;BME280;33524;55.434;38.520;2022-12-07T12:26:25;101469.59;;;-6.02;84.15
47761;BME280;33524;55.434;38.520;2022-12-07T12:29:00;101449.69;;;-6.24;84.16
47761;BME280;33524;55.434;38.520;2022-12-07T12:31:36;101467.94;;;-6.00;83.76
47761;BME280;33524;55.434;38.520;2022-12-07T12:34:33;101462.78;;;-6.03;83.46
47761;BME280;33524;55.434;38.520;2022-12-07T12:42:50;101460.16;;;-6.07;84.88
47761;BME280;33524;55.434;38.520;2022-12-07T12:45:26;101456.81;;;-6.03;84.38
47761;BME280;33524;55.434;38.520;2022-12-07T12:50:43;101462.56;;;-6.18;84.49
47761;BME280;33524;55.434;38.520;2022-12-07T12:53:25;101444.47;;;-6.31;83.95
47761;BME280;33524;55.434;38.520;2022-12-07T12:56:00;101460.97;;;-6.10;83.45
47761;BME280;33524;55.434;38.520;2022-12-07T12:58:38;101459.72;;;-6.40;84.79
47761;BME280;33524;55.434;38.520;2022-12-07T13:03:59;101464.97;;;-6.32;84.92
47761;BME280;33524;55.434;38.520;2022-12-07T13:08:58;101471.06;;;-6.21;85.36
47761;BME280;33524;55.434;38.520;2022-12-07T13:11:31;101467.41;;;-6.40;85.75
47761;BME280;33524;55.434;38.520;2022-12-07T13:20:04;101460.50;;;-6.44;86.62
47761;BME280;33524;55.434;38.520;2022-12-07T13:22:44;101464.84;;;-6.40;85.66
47761;BME280;33524;55.434;38.520;2022-12-07T13:25:23;101467.25;;;-6.51;85.12
47761;BME280;33524;55.434;38.520;2022-12-07T13:28:14;101465.53;;;-6.50;85.60
47761;BME280;33524;55.434;38.520;2022-12-07T13:30:47;101454.44;;;-6.49;85.44
47761;BME280;33524;55.434;38.520;2022-12-07T13:33:18;101458.72;;;-6.50;84.99
47761;BME280;33524;55.434;38.520;2022-12-07T13:35:47;101458.66;;;-6.54;85.61
47761;BME280;33524;55.434;38.520;2022-12-07T13:38:27;101458.53;;;-6.63;86.58
47761;BME280;33524;55.434;38.520;2022-12-07T13:41:05;101468.03;;;-6.53;86.78
47761;BME280;33524;55.434;38.520;2022-12-07T13:43:43;101442.47;;;-6.52;86.72
47761;BME280;33524;55.434;38.520;2022-12-07T13:46:12;101458.69;;;-6.51;86.77
47761;BME280;33524;55.434;38.520;2022-12-07T13:48:50;101453.25;;;-6.73;87.60
47761;BME280;33524;55.434;38.520;2022-12-07T13:51:27;101453.63;;;-6.48;87.21
47761;BME280;33524;55.434;38.520;2022-12-07T13:54:01;101460.22;;;-6.65;86.90
47761;BME280;33524;55.434;38.520;2022-12-07T13:56:36;101453.25;;;-6.73;86.18
47761;BME280;33524;55.434;38.520;2022-12-07T13:59:18;101449.88;;;-6.70;87.10
47761;BME280;33524;55.434;38.520;2022-12-07T14:01:49;101455.09;;;-6.65;87.14
47761;BME280;33524;55.434;38.520;2022-12-07T14:04:35;101453.41;;;-6.63;88.46
47761;BME280;33524;55.434;38.520;2022-12-07T14:07:23;101430.00;;;-6.90;87.60
47761;BME280;33524;55.434;38.520;2022-12-07T14:10:01;101446.53;;;-6.66;88.17
47761;BME280;33524;55.434;38.520;2022-12-07T14:12:31;101439.59;;;-6.75;88.05
47761;BME280;33524;55.434;38.520;2022-12-07T14:15:02;101442.16;;;-6.75;88.00
47761;BME280;33524;55.434;38.520;2022-12-07T14:17:31;101439.66;;;-6.70;87.66
47761;BME280;33524;55.434;38.520;2022-12-07T14:20:01;101435.78;;;-7.00;88.24
47761;BME280;33524;55.434;38.520;2022-12-07T14:22:37;101443.56;;;-6.94;88.44
47761;BME280;33524;55.434;38.520;2022-12-07T14:30:18;101417.84;;;-7.01;87.42
47761;BME280;33524;55.434;38.520;2022-12-07T14:32:51;101438.19;;;-7.09;87.72
47761;BME280;33524;55.434;38.520;2022-12-07T14:35:20;101434.09;;;-6.99;88.13
47761;BME280;33524;55.434;38.520;2022-12-07T14:37:49;101431.47;;;-7.04;87.96
47761;BME280;33524;55.434;38.520;2022-12-07T14:40:20;101425.50;;;-7.04;88.93
47761;BME280;33524;55.434;38.520;2022-12-07T14:42:55;101417.72;;;-7.09;87.89
47761;BME280;33524;55.434;38.520;2022-12-07T14:45:24;101417.53;;;-7.23;87.38
47761;BME280;33524;55.434;38.520;2022-12-07T14:47:53;101416.78;;;-7.16;87.35
47761;BME280;33524;55.434;38.520;2022-12-07T14:50:47;101421.06;;;-7.15;87.57
47761;BME280;33524;55.434;38.520;2022-12-07T14:53:41;101420.69;;;-7.38;88.24
47761;BME280;33524;55.434;38.520;2022-12-07T14:56:10;101417.63;;;-7.17;87.36
47761;BME280;33524;55.434;38.520;2022-12-07T14:58:40;101416.53;;;-7.31;87.92
47761;BME280;33524;55.434;38.520;2022-12-07T15:01:08;101414.97;;;-7.23;87.73
47761;BME280;33524;55.434;38.520;2022-12-07T15:03:36;101409.75;;;-7.29;87.86